Time;durP1;ratioP1;P1;durP2;ratioP2;P2;SDS_P1;SDS_P2;PMS_P1;PMS_P2;Temp;Humidity;BMP_temperature;BMP_pressure;BME280_temperature;BME280_humidity;BME280_pressure;Samples;Min_cycle;Max_cycle;Signal;HPM_P1;HPM_P2
2023/10/13 00:00:58;;;;;;;10.95;5.18;;;;;;;24.94;53.84;101011.19;4988530;28;20047;-61
2023/10/13 00:03:23;;;;;;;9.50;5.30;;;;;;;24.94;54.23;101000.22;4988602;28;20511;-60
2023/10/13 00:05:52;;;;;;;17.55;5.85;;;;;;;24.96;54.00;100998.13;4987722;28;20049;-61
2023/10/13 00:08:18;;;;;;;10.27;5.90;;;;;;;24.96;53.76;101003.63;4988435;28;20113;-62
2023/10/13 00:10:43;;;;;;;14.57;4.68;;;;;;;24.96;53.92;101001.69;4988777;28;20057;-63
2023/10/13 00:13:15;;;;;;;13.63;5.13;;;;;;;24.95;53.95;101000.03;4972486;28;20059;-62
2023/10/13 00:15:57;;;;;;;9.45;5.43;;;;;;;24.96;53.98;100998.13;4973858;28;20031;-62
2023/10/13 00:18:33;;;;;;;11.63;5.18;;;;;;;24.95;54.21;100990.97;4986805;28;20585;-61
2023/10/13 00:20:58;;;;;;;10.13;4.93;;;;;;;24.97;54.03;100986.09;4988036;28;20089;-61
2023/10/13 00:23:26;;;;;;;13.25;5.57;;;;;;;24.95;54.02;100991.81;4973820;28;20127;-62
2023/10/13 00:25:59;;;;;;;10.00;4.90;;;;;;;24.98;54.18;100993.28;4988242;28;20534;-61
2023/10/13 00:28:26;;;;;;;7.82;4.47;;;;;;;24.97;53.83;100986.09;4987828;28;20579;-61
2023/10/13 00:30:58;;;;;;;12.05;5.55;;;;;;;24.98;54.21;100987.78;4988566;28;20495;-61
2023/10/13 00:33:25;;;;;;;7.15;4.82;;;;;;;24.99;54.14;100986.72;4972304;28;20038;-62
2023/10/13 00:35:52;;;;;;;10.05;4.90;;;;;;;24.98;54.14;100982.31;4972424;28;20085;-61
2023/10/13 00:38:19;;;;;;;8.95;4.82;;;;;;;24.98;54.08;100980.41;4972252;28;20106;-62
2023/10/13 00:40:51;;;;;;;8.02;4.40;;;;;;;24.97;54.37;100969.66;4988188;28;20088;-61
2023/10/13 00:45:55;;;;;;;9.10;5.47;;;;;;;24.94;54.54;100972.81;4988019;28;20055;-62
2023/10/13 00:48:32;;;;;;;14.77;5.18;;;;;;;24.93;54.59;100968.41;4988381;28;20387;-61
2023/10/13 00:51:02;;;;;;;12.20;5.07;;;;;;;24.94;54.40;100967.34;4989379;28;20042;-61
2023/10/13 00:53:30;;;;;;;14.10;5.20;;;;;;;24.94;54.70;100961.84;4975752;28;20093;-61
2023/10/13 00:56:05;;;;;;;9.13;4.93;;;;;;;24.93;54.23;100962.94;4975599;28;20356;-61
2023/10/13 00:58:33;;;;;;;6.75;4.82;;;;;;;24.94;54.19;100956.38;4990319;28;20510;-61
2023/10/13 01:01:17;;;;;;;8.88;5.03;;;;;;;24.93;54.32;100951.97;4975429;28;20042;-61
2023/10/13 01:03:50;;;;;;;12.38;5.28;;;;;;;24.89;54.63;100946.94;4977394;28;20178;-61
2023/10/13 01:06:20;;;;;;;9.40;4.60;;;;;;;24.87;54.76;100951.78;4991713;28;20027;-62
2023/10/13 01:08:51;;;;;;;7.32;4.75;;;;;;;24.87;54.44;100940.81;4975507;28;20045;-61
2023/10/13 01:11:18;;;;;;;13.37;5.97;;;;;;;24.86;54.60;100944.63;4992154;28;20093;-61
2023/10/13 01:13:44;;;;;;;9.48;4.55;;;;;;;24.86;54.58;100938.31;4991613;28;20042;-61
2023/10/13 01:16:10;;;;;;;12.52;5.47;;;;;;;24.81;54.70;100930.75;4975108;28;20035;-62
2023/10/13 01:18:40;;;;;;;10.55;6.32;;;;;;;24.83;55.00;100925.03;4975229;28;20043;-61
2023/10/13 01:21:05;;;;;;;8.68;5.00;;;;;;;24.82;54.86;100923.34;4990878;28;20034;-61
2023/10/13 01:23:37;;;;;;;8.32;5.10;;;;;;;24.80;55.13;100923.56;4976500;28;20403;-61
2023/10/13 01:26:05;;;;;;;9.55;4.55;;;;;;;24.78;54.80;100906.50;4976434;28;20059;-61
2023/10/13 01:28:44;;;;;;;14.45;5.32;;;;;;;24.78;54.91;100909.22;4991066;28;20035;-62
2023/10/13 01:31:11;;;;;;;12.50;4.47;;;;;;;24.78;54.78;100909.22;4975010;28;20041;-61
2023/10/13 01:33:36;;;;;;;10.82;5.20;;;;;;;24.77;55.16;100904.78;4991189;28;20035;-61
2023/10/13 01:36:06;;;;;;;7.80;4.80;;;;;;;24.74;55.09;100905.22;4991100;28;20097;-62
2023/10/13 01:38:33;;;;;;;15.30;6.10;;;;;;;24.72;55.08;100901.88;4990629;28;20406;-61
2023/10/13 01:40:58;;;;;;;9.85;5.05;;;;;;;24.72;54.87;100893.66;4976191;28;20121;-61
2023/10/13 01:43:24;;;;;;;10.52;5.80;;;;;;;24.73;55.23;100900.00;4974892;28;20110;-61
2023/10/13 01:45:49;;;;;;;10.32;5.53;;;;;;;24.72;55.27;100893.66;4991500;28;20030;-62
2023/10/13 01:48:21;;;;;;;13.23;5.05;;;;;;;24.73;55.19;100884.38;4975845;28;20035;-61
2023/10/13 01:50:48;;;;;;;9.00;5.27;;;;;;;24.75;55.42;100871.31;4990534;28;20030;-61
2023/10/13 01:53:17;;;;;;;10.25;6.15;;;;;;;24.76;55.23;100883.91;4990684;28;20051;-61
2023/10/13 01:55:43;;;;;;;11.27;5.00;;;;;;;24.77;55.33;100880.13;4974516;28;20034;-61
2023/10/13 01:58:15;;;;;;;9.82;6.05;;;;;;;24.78;55.23;100875.50;4975834;28;20050;-62
2023/10/13 02:00:44;;;;;;;;;;;;;;;24.78;54.87;100867.28;4975821;28;20051;-62
2023/10/13 02:03:17;;;;;;;7.93;4.85;;;;;;;24.77;54.88;100860.94;4973367;28;19910;-62
2023/10/13 02:05:48;;;;;;;;;;;;;;;24.81;54.94;100858.66;4975182;28;20403;-61
2023/10/13 02:08:23;;;;;;;10.43;5.13;;;;;;;24.82;54.77;100852.09;4974572;28;19921;-61
2023/10/13 02:10:54;;;;;;;12.13;5.05;;;;;;;24.82;55.24;100849.34;4990198;28;20038;-61
2023/10/13 02:13:22;;;;;;;7.95;5.10;;;;;;;24.83;55.18;100845.56;4974116;28;20035;-61
2023/10/13 02:15:48;;;;;;;10.93;5.22;;;;;;;24.84;55.48;100839.03;4990166;28;20570;-61
2023/10/13 02:18:20;;;;;;;13.55;5.93;;;;;;;24.85;54.71;100833.31;4990294;28;20069;-61
2023/10/13 02:20:54;;;;;;;10.38;5.75;;;;;;;24.85;55.17;100829.72;4989558;28;20089;-61
2023/10/13 02:23:20;;;;;;;12.43;5.43;;;;;;;24.83;55.17;100824.47;4974081;28;20454;-61
2023/10/13 02:25:52;;;;;;;15.48;5.90;;;;;;;24.83;55.38;100819.00;4974119;28;20058;-62
2023/10/13 02:28:21;;;;;;;11.88;5.50;;;;;;;24.84;54.89;100817.94;4975240;28;20446;-62
2023/10/13 02:30:50;;;;;;;13.38;5.75;;;;;;;24.86;55.61;100815.81;4989768;28;20038;-61
2023/10/13 02:33:21;;;;;;;12.70;5.68;;;;;;;24.87;55.59;100820.22;4989796;28;20027;-62
2023/10/13 02:35:55;;;;;;;13.90;5.28;;;;;;;24.86;55.44;100821.28;4989567;28;20042;-61
2023/10/13 02:38:33;;;;;;;13.68;6.43;;;;;;;24.87;55.34;100814.72;4989036;28;20090;-61
2023/10/13 02:41:05;;;;;;;10.57;6.13;;;;;;;24.88;55.44;100804.59;4989753;28;20035;-61
2023/10/13 02:43:34;;;;;;;10.30;6.45;;;;;;;24.87;55.68;100801.03;4972739;28;20515;-61
2023/10/13 02:46:00;;;;;;;13.35;6.20;;;;;;;24.86;55.76;100791.16;4974810;28;20043;-61
2023/10/13 02:48:30;;;;;;;13.63;6.20;;;;;;;24.86;55.49;100785.66;4973479;28;20042;-61
2023/10/13 02:51:06;;;;;;;12.48;6.00;;;;;;;24.88;55.66;100782.69;4989267;28;20039;-61
2023/10/13 02:53:31;;;;;;;14.07;5.60;;;;;;;24.88;55.66;100790.91;4989064;28;20041;-61
2023/10/13 02:56:04;;;;;;;9.50;5.05;;;;;;;24.86;55.64;100782.91;4989669;28;20039;-61
2023/10/13 02:58:37;;;;;;;15.05;6.15;;;;;;;24.86;55.69;100780.19;4974530;28;20082;-61
2023/10/13 03:01:18;;;;;;;10.48;4.90;;;;;;;24.90;55.74;100775.91;4989118;28;20042;-61
2023/10/13 03:03:53;;;;;;;11.68;4.75;;;;;;;24.90;56.11;100777.84;4988160;28;20138;-62
2023/10/13 03:06:23;;;;;;;13.55;5.65;;;;;;;24.92;55.91;100766.63;4988111;28;20034;-62
2023/10/13 03:08:49;;;;;;;13.52;5.38;;;;;;;24.93;55.50;100757.38;4973784;28;20058;-61
2023/10/13 03:11:20;;;;;;;20.75;5.68;;;;;;;24.93;55.73;100752.69;4973226;28;20114;-61
2023/10/13 03:13:46;;;;;;;11.70;4.97;;;;;;;24.94;55.87;100731.63;4957804;28;20030;-61
2023/10/13 03:16:15;;;;;;;10.57;5.55;;;;;;;24.95;55.66;100733.31;4974667;28;20069;-61
2023/10/13 03:18:56;;;;;;;11.55;5.22;;;;;;;24.96;55.97;100735.00;4974830;28;20039;-61
2023/10/13 03:21:29;;;;;;;10.57;5.25;;;;;;;24.95;56.03;100734.16;4988585;28;20035;-61
2023/10/13 03:23:56;;;;;;;11.00;4.25;;;;;;;24.96;55.88;100729.50;4973497;28;20059;-61
2023/10/13 03:26:21;;;;;;;10.25;5.13;;;;;;;24.94;55.50;100723.38;4973768;28;20082;-61
2023/10/13 03:28:52;;;;;;;10.23;4.72;;;;;;;24.96;56.03;100729.50;4989836;28;20494;-61
2023/10/13 03:31:19;;;;;;;9.80;4.25;;;;;;;24.97;56.03;100732.00;4989100;28;20034;-61
2023/10/13 03:33:46;;;;;;;12.13;4.88;;;;;;;24.94;55.73;100728.88;4973523;28;20057;-60
2023/10/13 03:36:35;;;;;;;8.50;4.63;;;;;;;24.97;55.70;100732.00;4990266;28;20093;-61
2023/10/13 03:39:07;;;;;;;12.00;4.38;;;;;;;24.97;55.89;100725.69;4986679;28;20380;-61
2023/10/13 03:41:36;;;;;;;10.38;4.93;;;;;;;24.93;56.14;100719.00;4988687;28;20403;-61
2023/10/13 03:44:17;;;;;;;10.88;4.53;;;;;;;24.92;56.26;100714.56;4974036;28;20042;-61
2023/10/13 03:46:42;;;;;;;9.07;3.97;;;;;;;24.80;56.26;100704.34;4988075;28;20061;-61
2023/10/13 03:49:12;;;;;;;12.20;4.82;;;;;;;24.78;56.11;100700.97;4973165;28;20499;-62
2023/10/13 03:51:39;;;;;;;7.90;4.82;;;;;;;24.72;56.81;100693.63;4988810;28;20039;-61
2023/10/13 03:54:07;;;;;;;11.38;4.68;;;;;;;24.66;56.53;100686.31;4973016;28;20111;-62
2023/10/13 03:56:39;;;;;;;11.00;4.80;;;;;;;24.63;56.63;100680.44;4973323;28;20059;-61
2023/10/13 03:59:06;;;;;;;9.85;5.13;;;;;;;24.59;56.71;100685.53;4972544;28;20495;-63
2023/10/13 04:01:40;;;;;;;13.68;4.80;;;;;;;24.57;56.61;100676.69;4972553;28;20034;-60
2023/10/13 04:04:10;;;;;;;7.45;4.60;;;;;;;24.59;57.03;100674.59;4972945;28;20039;-61
2023/10/13 04:12:21;;;;;;;13.35;4.75;;;;;;;24.59;56.97;100652.66;4992512;28;20039;-60
2023/10/13 04:17:33;;;;;;;8.65;4.75;;;;;;;24.63;57.17;100656.63;4992482;28;20469;-61
2023/10/13 04:33:36;;;;;;;8.88;4.25;;;;;;;24.46;57.47;100632.75;4996984;28;20061;-61
2023/10/13 04:39:09;;;;;;;7.40;3.97;;;;;;;24.40;57.35;100639.16;4995607;28;20469;-63
2023/10/13 04:49:49;;;;;;;12.18;4.95;;;;;;;24.36;57.68;100643.38;4979156;28;20034;-62
2023/10/13 04:55:09;;;;;;;14.55;4.65;;;;;;;24.34;58.30;100641.69;4981594;28;20049;-61
2023/10/13 04:57:46;;;;;;;10.98;4.35;;;;;;;24.40;57.80;100644.63;4980199;28;20104;-61
2023/10/13 05:06:10;;;;;;;13.82;3.83;;;;;;;24.42;58.19;100631.53;4995392;28;20405;-61
2023/10/13 05:46:49;;;;;;;14.05;3.65;;;;;;;24.76;57.38;100604.41;4994246;28;20037;-61
2023/10/13 06:29:33;;;;;;;16.80;4.15;;;;;;;25.08;57.54;100519.31;4993650;28;20041;-61
2023/10/13 06:32:01;;;;;;;18.83;3.60;;;;;;;25.13;57.53;100517.56;4993255;28;20109;-61
2023/10/13 06:34:37;;;;;;;11.10;4.43;;;;;;;25.19;56.83;100515.78;4993223;28;20556;-62
2023/10/13 06:37:21;;;;;;;6.93;4.07;;;;;;;25.21;57.01;100513.69;4993273;28;20058;-60
2023/10/13 06:39:47;;;;;;;14.10;4.38;;;;;;;25.27;56.73;100510.81;4993327;28;20034;-61
2023/10/13 06:42:13;;;;;;;12.70;4.47;;;;;;;25.32;57.01;100521.94;4976721;28;20050;-60
2023/10/13 06:44:39;;;;;;;14.85;4.80;;;;;;;25.31;56.68;100509.31;4993052;28;20046;-61
2023/10/13 06:47:05;;;;;;;13.80;4.70;;;;;;;25.36;57.46;100505.84;4993153;28;20407;-61
2023/10/13 06:49:38;;;;;;;9.98;3.72;;;;;;;25.39;56.26;100503.50;4992500;28;20178;-61
2023/10/13 06:52:06;;;;;;;14.88;4.05;;;;;;;25.45;56.51;100509.94;4993040;28;20045;-61
2023/10/13 06:54:35;;;;;;;12.73;3.47;;;;;;;25.49;56.38;100505.69;4976988;28;20057;-61
2023/10/13 06:57:03;;;;;;;14.82;4.18;;;;;;;25.53;56.42;100498.66;4976532;28;20121;-61
2023/10/13 06:59:32;;;;;;;9.77;3.80;;;;;;;25.61;56.26;100513.94;4992780;28;20043;-61
2023/10/13 07:02:03;;;;;;;9.45;3.50;;;;;;;25.66;56.32;100492.13;4976864;28;20176;-61
2023/10/13 07:04:29;;;;;;;15.80;3.88;;;;;;;25.74;56.45;100497.28;4992822;28;20030;-61
2023/10/13 07:06:54;;;;;;;12.07;3.70;;;;;;;25.81;56.18;100493.34;4976442;28;20525;-61
2023/10/13 07:12:02;;;;;;;17.55;3.15;;;;;;;25.98;55.58;100483.34;4992692;28;20038;-61
2023/10/13 07:14:28;;;;;;;7.97;3.20;;;;;;;26.04;55.44;100487.88;4976504;28;20042;-61
2023/10/13 07:16:59;;;;;;;9.00;3.00;;;;;;;26.13;55.64;100495.75;4976565;28;20057;-61
2023/10/13 07:19:28;;;;;;;15.27;3.60;;;;;;;26.23;54.92;100499.59;4976130;28;20426;-62
2023/10/13 07:22:18;;;;;;;17.35;3.78;;;;;;;26.30;55.35;100503.06;4992565;28;20042;-61
2023/10/13 07:24:44;;;;;;;12.57;3.50;;;;;;;26.45;54.53;100505.31;4992033;28;20046;-61
2023/10/13 07:27:10;;;;;;;14.23;3.97;;;;;;;26.57;54.88;100503.41;4992421;28;20050;-61
2023/10/13 07:29:36;;;;;;;6.60;2.88;;;;;;;26.63;54.61;100496.09;4992287;28;20076;-61
2023/10/13 07:32:12;;;;;;;15.90;3.97;;;;;;;26.67;54.55;100491.78;4992490;28;20030;-61
2023/10/13 07:34:39;;;;;;;13.80;3.47;;;;;;;26.71;54.62;100493.81;4992418;28;20117;-61
2023/10/13 07:37:08;;;;;;;15.77;3.58;;;;;;;26.78;54.30;100483.53;4992344;28;20034;-61
2023/10/13 07:39:33;;;;;;;9.88;2.75;;;;;;;26.84;54.12;100482.56;4992501;28;20553;-62
2023/10/13 07:42:05;;;;;;;13.95;3.60;;;;;;;26.97;54.00;100478.69;4992121;28;20045;-62
2023/10/13 07:44:33;;;;;;;10.65;2.92;;;;;;;27.02;53.37;100484.31;4976818;28;20498;-63
2023/10/13 07:46:59;;;;;;;10.88;3.05;;;;;;;27.07;53.40;100476.97;4993520;28;20038;-61
2023/10/13 07:49:39;;;;;;;9.13;3.25;;;;;;;27.16;53.55;100483.75;4975837;28;20043;-62
2023/10/13 07:52:23;;;;;;;14.98;4.38;;;;;;;27.32;52.34;100481.28;4993382;28;20115;-62
2023/10/13 07:57:36;;;;;;;12.88;3.80;;;;;;;27.64;51.44;100482.44;4992129;28;20556;-62
2023/10/13 08:00:26;;;;;;;13.15;3.25;;;;;;;27.88;51.14;100481.19;4991758;28;20047;-61
2023/10/13 08:08:35;;;;;;;10.68;3.30;;;;;;;28.23;51.25;100470.75;4982860;28;20042;-61
2023/10/13 08:11:08;;;;;;;7.53;3.05;;;;;;;28.39;50.63;100480.09;4996225;28;20041;-62
2023/10/13 08:13:37;;;;;;;9.00;3.17;;;;;;;28.50;49.52;100475.53;4997038;28;20042;-62
2023/10/13 08:16:20;;;;;;;15.48;5.78;;;;;;;28.59;49.30;100460.19;4997230;28;20039;-60
2023/10/13 08:18:49;;;;;;;7.35;2.45;;;;;;;28.74;48.82;100465.94;4968423;28;20633;-61
2023/10/13 08:21:18;;;;;;;8.20;2.38;;;;;;;28.89;48.70;100458.69;4995631;28;20398;-60
2023/10/13 08:35:23;;;;;;;10.55;3.35;;;;;;;29.87;46.87;100448.38;4996356;28;20072;-65
2023/10/13 08:53:28;;;;;;;11.63;2.75;;;;;;;29.84;46.29;100426.81;4995401;28;20498;-63
2023/10/13 08:56:17;;;;;;;11.07;3.88;;;;;;;29.64;46.08;100426.59;4996646;28;20042;-62
2023/10/13 09:12:20;;;;;;;9.57;4.15;;;;;;;31.13;43.92;100407.50;4995282;28;20387;-64
2023/10/13 09:15:03;;;;;;;19.30;4.00;;;;;;;31.01;43.93;100404.16;4995956;28;20014;-63
2023/10/13 09:17:35;;;;;;;8.63;3.50;;;;;;;30.87;43.80;100392.78;4980238;28;20101;-64
2023/10/13 09:23:07;;;;;;;10.20;4.38;;;;;;;30.96;43.80;100404.16;4994928;28;20065;-63
2023/10/13 09:25:37;;;;;;;7.32;3.58;;;;;;;30.87;43.62;100406.59;4995869;28;20126;-62
2023/10/13 09:28:21;;;;;;;7.22;3.15;;;;;;;30.83;43.49;100401.88;4994752;28;20081;-63
2023/10/13 09:30:48;;;;;;;6.13;3.92;;;;;;;30.74;43.60;100414.59;4995734;28;20098;-62
2023/10/13 09:33:28;;;;;;;7.65;4.63;;;;;;;30.76;43.14;100406.84;4994575;28;20093;-61
2023/10/13 09:35:54;;;;;;;13.15;3.28;;;;;;;30.71;43.68;100404.06;4994497;28;20490;-59
2023/10/13 09:38:20;;;;;;;8.45;3.35;;;;;;;30.72;42.96;100405.72;4994469;28;20030;-63
2023/10/13 09:40:50;;;;;;;8.95;3.42;;;;;;;31.63;41.58;100396.47;4978417;28;20054;-62
2023/10/13 09:43:19;;;;;;;8.10;3.67;;;;;;;31.58;42.00;100392.88;4993850;28;20053;-62
2023/10/13 09:46:02;;;;;;;6.75;3.97;;;;;;;31.49;42.54;100389.81;5010754;28;20031;-60
2023/10/13 09:48:49;;;;;;;8.40;4.07;;;;;;;31.35;42.77;100388.69;4993960;28;20398;-61
2023/10/13 09:51:21;;;;;;;9.65;3.40;;;;;;;31.31;41.85;100392.28;4995411;28;20066;-61
2023/10/13 09:54:16;;;;;;;15.43;3.95;;;;;;;31.29;42.44;100377.91;4994306;28;20398;-60
2023/10/13 09:56:51;;;;;;;6.18;3.83;;;;;;;31.35;41.67;100369.28;4984994;28;20031;-61
2023/10/13 09:59:22;;;;;;;10.23;4.72;;;;;;;31.21;42.22;100368.22;4994074;28;20398;-60
2023/10/13 10:01:51;;;;;;;8.32;4.40;;;;;;;31.83;40.52;100358.78;4978220;28;20039;-60
2023/10/13 10:04:19;;;;;;;14.13;4.03;;;;;;;32.75;40.21;100370.09;4995216;28;20034;-61
2023/10/13 10:07:00;;;;;;;8.98;4.28;;;;;;;33.17;39.15;100354.84;4977877;28;20042;-61
2023/10/13 10:09:48;;;;;;;10.88;4.50;;;;;;;33.04;39.20;100358.25;4993833;28;20035;-60
2023/10/13 10:12:33;;;;;;;8.80;3.35;;;;;;;32.54;40.73;100368.56;4993866;28;20045;-61
2023/10/13 10:15:20;;;;;;;8.68;4.40;;;;;;;32.29;40.06;100363.09;4992328;28;20085;-62
2023/10/13 10:17:46;;;;;;;9.13;4.25;;;;;;;32.63;40.08;100366.84;4994074;28;20034;-60
2023/10/13 10:20:19;;;;;;;7.63;3.75;;;;;;;33.07;39.68;100354.94;4993658;28;20050;-59
2023/10/13 10:22:59;;;;;;;9.20;4.22;;;;;;;33.07;40.05;100354.94;4994576;28;20108;-60
2023/10/13 10:25:37;;;;;;;11.43;4.20;;;;;;;32.62;39.74;100354.06;4977420;28;20066;-60
2023/10/13 10:28:05;;;;;;;11.93;3.67;;;;;;;32.41;40.20;100344.19;4977686;28;20042;-60
2023/10/13 10:30:35;;;;;;;8.75;3.47;;;;;;;32.56;39.62;100358.00;4993543;28;20073;-59
2023/10/13 10:33:07;;;;;;;6.63;3.75;;;;;;;32.55;40.25;100342.44;4993638;28;20043;-60
2023/10/13 10:35:33;;;;;;;12.20;4.03;;;;;;;33.09;38.33;100336.84;4977988;28;20438;-60
2023/10/13 10:38:24;;;;;;;11.43;5.05;;;;;;;33.06;39.00;100342.16;4993512;28;20030;-59
2023/10/13 10:40:52;;;;;;;11.38;4.40;;;;;;;33.48;38.88;100334.00;4994575;28;20045;-59
2023/10/13 10:43:18;;;;;;;9.98;3.85;;;;;;;33.23;39.20;100334.25;4994811;28;20064;-59
2023/10/13 10:45:51;;;;;;;9.75;4.18;;;;;;;32.95;38.87;100329.44;4977408;28;20042;-60
2023/10/13 10:48:20;;;;;;;;;;;;;;;32.72;40.08;100331.81;4993847;28;20043;-60
2023/10/13 10:50:55;;;;;;;9.20;3.50;;;;;;;32.47;39.96;100323.59;5009009;28;20340;-60
2023/10/13 10:53:43;;;;;;;7.32;3.58;;;;;;;32.29;38.97;100321.50;5009515;28;20034;-60
2023/10/13 10:59:19;;;;;;;7.57;3.53;;;;;;;31.99;40.24;100327.13;4953267;29;20063;-60
2023/10/13 11:01:52;;;;;;;8.70;3.42;;;;;;;31.90;39.05;100312.19;4921065;28;20047;-60
2023/10/13 11:06:54;;;;;;;13.43;3.38;;;;;;;31.71;40.20;100315.56;5008940;28;19908;-60
2023/10/13 11:09:31;;;;;;;8.48;3.55;;;;;;;31.60;39.37;100313.13;4977262;28;20078;-60
2023/10/13 11:12:24;;;;;;;8.68;3.28;;;;;;;31.79;39.41;100300.31;5009615;28;20038;-59
2023/10/13 11:14:59;;;;;;;;;;;;;;;32.47;39.33;100306.16;4994689;28;20038;-59
2023/10/13 11:20:25;;;;;;;10.45;3.45;;;;;;;33.00;38.06;100282.22;4992197;28;20062;-61
2023/10/13 11:22:52;;;;;;;14.03;3.47;;;;;;;32.86;37.99;100281.22;4977454;28;20473;-59
2023/10/13 11:25:34;;;;;;;13.25;5.13;;;;;;;32.69;38.60;100284.41;4993161;28;20035;-62
2023/10/13 11:28:17;;;;;;;8.02;3.63;;;;;;;32.50;38.83;100284.19;4992888;28;20402;-61
2023/10/13 11:30:49;;;;;;;9.00;3.45;;;;;;;32.34;39.17;100285.41;4992453;28;20039;-62
2023/10/13 11:33:18;;;;;;;17.30;3.92;;;;;;;32.17;39.01;100284.94;4990739;28;20446;-62
2023/10/13 11:38:27;;;;;;;10.95;3.13;;;;;;;31.91;39.51;100261.22;4993046;28;20113;-61
2023/10/13 11:43:52;;;;;;;15.93;3.78;;;;;;;31.96;38.99;100269.50;4994049;28;20027;-63
2023/10/13 11:51:33;;;;;;;21.55;3.40;;;;;;;32.25;38.53;100256.63;4993903;28;20030;-61
2023/10/13 11:53:59;;;;;;;11.68;3.65;;;;;;;32.24;37.77;100246.66;4993713;28;20121;-61
2023/10/13 11:56:24;;;;;;;12.30;3.03;;;;;;;32.25;38.35;100249.13;4976444;28;20508;-63
2023/10/13 11:58:51;;;;;;;17.00;3.65;;;;;;;32.44;37.81;100240.16;4992321;28;20057;-63
2023/10/13 12:11:45;;;;;;;9.35;3.28;;;;;;;32.63;37.22;100243.94;4991380;28;20034;-61
2023/10/13 12:14:21;;;;;;;17.88;4.75;;;;;;;32.47;38.26;100234.84;4975133;28;20034;-61
2023/10/13 12:16:53;;;;;;;11.38;3.88;;;;;;;32.38;37.49;100242.13;4992749;28;20065;-62
2023/10/13 12:19:28;;;;;;;14.55;4.05;;;;;;;32.28;37.54;100258.81;4994790;28;20094;-62
2023/10/13 12:21:55;;;;;;;8.00;3.03;;;;;;;32.12;38.01;100238.69;4991929;28;20117;-63
2023/10/13 12:24:39;;;;;;;6.65;2.67;;;;;;;31.99;38.37;100239.28;4969915;28;20053;-61
2023/10/13 14:14:33;;;;;;;12.63;2.97;;;;;;;30.15;37.80;100182.69;3818608;29;22390;-66
2023/10/13 14:17:06;;;;;;;7.97;3.08;;;;;;;30.08;37.71;100171.06;4936951;29;20127;-61
2023/10/13 14:19:32;;;;;;;7.72;3.97;;;;;;;30.09;38.28;100172.75;4936812;29;20124;-62
2023/10/13 14:21:58;;;;;;;12.45;3.72;;;;;;;30.01;37.88;100178.81;4936954;29;20122;-61
2023/10/13 14:24:28;;;;;;;8.63;3.70;;;;;;;29.96;38.03;100167.72;4919924;29;20040;-61
2023/10/13 14:27:11;;;;;;;6.15;2.95;;;;;;;29.89;38.49;100169.94;4904706;29;20050;-61
2023/10/13 14:29:42;;;;;;;7.40;3.58;;;;;;;29.87;38.24;100177.66;4918571;29;20043;-61
2023/10/13 14:32:13;;;;;;;8.13;3.88;;;;;;;29.84;38.28;100172.69;4920735;29;20015;-61
2023/10/13 14:34:42;;;;;;;11.90;3.60;;;;;;;29.81;37.85;100174.06;4904479;29;20111;-61
2023/10/13 14:37:08;;;;;;;6.30;2.92;;;;;;;29.80;38.50;100171.53;4919694;29;20036;-62
2023/10/13 14:39:35;;;;;;;6.22;3.10;;;;;;;29.79;38.42;100167.09;4935305;29;20032;-62
2023/10/13 14:42:05;;;;;;;7.30;2.78;;;;;;;29.77;38.08;100172.06;4919744;29;20059;-62
2023/10/13 14:44:34;;;;;;;11.65;3.35;;;;;;;29.76;38.24;100181.47;4888739;29;20039;-61
2023/10/13 14:47:05;;;;;;;7.57;2.63;;;;;;;29.74;38.31;100167.06;4919367;29;20515;-62
2023/10/13 14:49:32;;;;;;;12.35;3.30;;;;;;;29.73;38.03;100177.28;4889248;29;20067;-61
2023/10/13 14:51:59;;;;;;;6.68;3.22;;;;;;;29.74;38.10;100173.44;4919381;29;20035;-60
2023/10/13 14:54:34;;;;;;;10.82;3.25;;;;;;;29.68;38.37;100173.66;4919658;29;20032;-61
2023/10/13 14:57:03;;;;;;;8.77;3.00;;;;;;;29.60;38.02;100176.97;4906316;29;20024;-63
2023/10/13 14:59:38;;;;;;;5.75;3.13;;;;;;;29.57;38.46;100175.56;4936325;29;20028;-61
2023/10/13 15:02:04;;;;;;;8.73;2.97;;;;;;;29.51;38.19;100156.50;4904958;29;20095;-61
2023/10/13 15:04:32;;;;;;;13.60;3.70;;;;;;;29.43;38.81;100172.47;4919270;29;20036;-61
2023/10/13 15:07:06;;;;;;;6.18;3.20;;;;;;;29.37;39.00;100168.03;4919595;29;20039;-60
2023/10/13 15:09:31;;;;;;;10.68;4.38;;;;;;;29.32;38.35;100168.00;4919354;29;20043;-61
2023/10/13 15:11:58;;;;;;;6.30;3.03;;;;;;;29.28;39.13;100158.63;4919279;29;20032;-61
2023/10/13 15:14:24;;;;;;;8.52;2.70;;;;;;;29.20;39.02;100172.06;4936202;29;20039;-62
2023/10/13 15:16:50;;;;;;;27.17;4.05;;;;;;;29.12;38.94;100159.56;4921053;29;20130;-61
2023/10/13 15:19:18;;;;;;;9.50;3.08;;;;;;;29.11;39.24;100157.94;4922070;29;20054;-60
2023/10/13 15:21:48;;;;;;;10.32;3.13;;;;;;;29.12;39.25;100159.56;4922201;29;20055;-60
2023/10/13 15:24:14;;;;;;;8.10;3.17;;;;;;;29.14;38.99;100162.91;4922657;29;20039;-60
2023/10/13 15:26:44;;;;;;;12.63;3.05;;;;;;;29.15;38.77;100153.53;4921854;29;20419;-60
2023/10/13 15:29:12;;;;;;;4.50;2.65;;;;;;;29.16;38.84;100137.81;4953827;29;20035;-61
2023/10/13 15:31:40;;;;;;;10.07;3.00;;;;;;;29.11;39.08;100141.38;4937787;29;20522;-60
2023/10/13 15:34:14;;;;;;;10.85;3.10;;;;;;;29.03;39.50;100139.13;4937511;29;20036;-61
2023/10/13 15:36:42;;;;;;;10.73;2.88;;;;;;;29.07;39.52;100144.91;4938069;29;20031;-61
2023/10/13 15:39:15;;;;;;;4.25;2.83;;;;;;;29.03;38.94;100158.44;4937423;29;20043;-60
2023/10/13 15:41:41;;;;;;;;;;;;;;;29.02;39.31;100148.50;4938492;29;20062;-61
2023/10/13 15:44:12;;;;;;;8.63;3.28;;;;;;;28.99;39.67;100143.50;4921703;29;19957;-62
2023/10/13 15:46:38;;;;;;;11.50;3.50;;;;;;;28.95;39.71;100142.38;4937807;29;20035;-60
2023/10/13 15:49:05;;;;;;;11.95;3.17;;;;;;;28.91;39.08;100134.91;4937626;29;20034;-62
2023/10/13 15:51:36;;;;;;;7.70;3.20;;;;;;;28.84;39.03;100124.09;4936760;29;20032;-60
2023/10/13 15:54:02;;;;;;;13.82;3.20;;;;;;;28.82;39.71;100134.56;4922009;29;20056;-61
2023/10/13 15:56:31;;;;;;;7.82;2.75;;;;;;;28.81;39.70;100125.44;4937626;29;20499;-61
2023/10/13 15:58:57;;;;;;;8.10;2.90;;;;;;;28.81;39.64;100113.63;4921988;29;20039;-62
2023/10/13 16:01:23;;;;;;;4.30;2.47;;;;;;;28.80;39.64;100123.81;4936890;29;20039;-61
2023/10/13 16:03:52;;;;;;;8.43;3.13;;;;;;;28.78;38.72;100119.66;4921606;29;20035;-61
2023/10/13 16:06:18;;;;;;;9.35;3.55;;;;;;;28.75;39.90;100096.22;4954635;29;20377;-60
2023/10/13 16:08:43;;;;;;;11.20;3.08;;;;;;;28.73;39.16;100111.34;4921308;29;20071;-60
2023/10/13 16:11:13;;;;;;;7.55;2.95;;;;;;;28.71;39.70;100114.38;4937212;29;20030;-60
2023/10/13 16:13:40;;;;;;;10.52;2.88;;;;;;;28.73;38.95;100111.34;4921545;29;20467;-60
2023/10/13 16:16:05;;;;;;;9.02;3.88;;;;;;;28.75;38.84;100104.47;4954183;29;20619;-60
2023/10/13 16:18:34;;;;;;;7.70;3.10;;;;;;;28.74;39.49;100110.25;4953232;29;20118;-60
2023/10/13 16:21:03;;;;;;;5.65;2.80;;;;;;;28.71;39.99;100103.34;4937537;29;20030;-60
2023/10/13 16:23:29;;;;;;;11.05;3.72;;;;;;;28.71;38.95;100108.00;4956990;29;20099;-60
2023/10/13 16:25:57;;;;;;;8.82;3.00;;;;;;;28.68;39.04;100108.53;4940906;29;20042;-60
2023/10/13 16:28:22;;;;;;;15.48;2.92;;;;;;;28.67;39.14;100102.19;4939983;29;20395;-60
2023/10/13 16:30:49;;;;;;;10.38;2.65;;;;;;;28.65;39.97;100098.03;4940734;29;20039;-60
2023/10/13 16:33:14;;;;;;;8.15;3.00;;;;;;;28.65;40.10;100103.56;4940931;29;20031;-60
2023/10/13 16:35:45;;;;;;;5.53;3.17;;;;;;;28.61;39.82;100107.94;4957911;29;20107;-60
2023/10/13 16:38:10;;;;;;;7.97;2.50;;;;;;;28.55;40.15;100095.19;4956595;29;20035;-61
2023/10/13 16:40:39;;;;;;;9.57;2.97;;;;;;;28.55;40.58;100114.50;4940358;29;20031;-61
2023/10/13 16:43:07;;;;;;;8.68;3.30;;;;;;;28.50;39.96;100097.94;4957713;29;20491;-60
2023/10/13 16:45:43;;;;;;;8.95;3.40;;;;;;;28.48;40.03;100106.44;4939524;29;20042;-61
2023/10/13 16:48:10;;;;;;;9.75;2.80;;;;;;;28.44;40.40;100079.69;4957658;29;20399;-61
2023/10/13 16:50:37;;;;;;;10.38;2.92;;;;;;;28.38;40.19;100086.25;4924599;29;20039;-60
2023/10/13 16:53:06;;;;;;;8.13;3.35;;;;;;;28.31;41.37;100086.47;4957577;29;20548;-60